Time;durP1;ratioP1;P1;durP2;ratioP2;P2;SDS_P1;SDS_P2;PMS_P1;PMS_P2;Temp;Humidity;BMP_temperature;BMP_pressure;BME280_temperature;BME280_humidity;BME280_pressure;Samples;Min_cycle;Max_cycle;Signal;HPM_P1;HPM_P2
2021/03/01 00:02:48;;;;;;;12.02;4.72;;;3.80;99.90;;;;;;6702814;89;20209;-82
2021/03/01 00:12:49;;;;;;;12.82;4.07;;;3.90;99.90;;;;;;6664430;89;20193;-79
2021/03/01 00:22:49;;;;;;;9.63;4.40;;;3.40;99.90;;;;;;6673612;89;20273;-80
2021/03/01 00:32:50;;;;;;;10.93;5.10;;;3.30;99.90;;;;;;6647375;89;20257;-80
2021/03/01 00:42:51;;;;;;;11.40;4.70;;;3.10;99.90;;;;;;6660673;89;21331;-80
2021/03/01 00:52:51;;;;;;;10.20;4.30;;;2.90;99.90;;;;;;6690533;89;20201;-80
2021/03/01 01:02:52;;;;;;;10.88;4.22;;;2.80;99.90;;;;;;6707122;88;20179;-79
2021/03/01 01:22:56;;;;;;;10.50;3.92;;;2.90;99.90;;;;;;6729013;88;20240;-78
2021/03/01 01:32:57;;;;;;;9.00;3.80;;;3.00;99.90;;;;;;6743058;88;20664;-78
2021/03/01 01:42:57;;;;;;;10.48;4.25;;;2.80;99.90;;;;;;6745492;88;20185;-78
2021/03/01 01:52:58;;;;;;;8.68;3.60;;;2.50;99.90;;;;;;6745899;88;20735;-78
2021/03/01 02:03:21;;;;;;;8.57;3.95;;;2.40;99.90;;;;;;6744369;88;20170;-78
2021/03/01 02:13:30;;;;;;;8.63;3.75;;;2.30;99.90;;;;;;6725643;88;20166;-78
2021/03/01 02:23:31;;;;;;;8.57;3.97;;;2.20;99.90;;;;;;6727424;88;20159;-77
2021/03/01 02:33:36;;;;;;;10.65;4.22;;;2.20;99.90;;;;;;6728986;88;20207;-78
2021/03/01 02:43:38;;;;;;;10.45;4.10;;;2.10;99.90;;;;;;6722923;88;20302;-78
2021/03/01 02:53:40;;;;;;;13.05;4.30;;;2.10;99.90;;;;;;6729570;88;20196;-77
2021/03/01 03:03:42;;;;;;;8.30;3.40;;;2.30;99.90;;;;;;6764637;88;20817;-77
2021/03/01 03:13:45;;;;;;;7.87;3.60;;;2.20;99.90;;;;;;6763522;87;21042;-78
2021/03/01 03:23:47;;;;;;;8.05;3.67;;;2.00;99.90;;;;;;6728827;88;20222;-78
2021/03/01 03:33:47;;;;;;;7.43;3.92;;;1.90;99.90;;;;;;6729389;88;20758;-79
2021/03/01 03:43:49;;;;;;;7.70;3.53;;;1.80;99.90;;;;;;6726647;88;20168;-78
2021/03/01 03:53:53;;;;;;;6.70;2.97;;;1.70;99.90;;;;;;6743787;88;20251;-78
2021/03/01 04:03:56;;;;;;;7.12;3.55;;;1.70;99.90;;;;;;6745097;88;20220;-78
2021/03/01 04:13:57;;;;;;;9.40;3.70;;;1.70;99.90;;;;;;6742643;88;20614;-78
2021/03/01 04:23:59;;;;;;;9.52;3.87;;;1.70;99.90;;;;;;6727418;88;20223;-79
2021/03/01 04:34:01;;;;;;;9.02;4.05;;;1.40;99.90;;;;;;6723212;88;20693;-77
2021/03/01 04:44:03;;;;;;;7.78;3.40;;;1.30;99.90;;;;;;6727270;88;20215;-79
2021/03/01 04:54:04;;;;;;;10.23;4.15;;;1.40;99.90;;;;;;6726836;88;20220;-78
2021/03/01 05:04:05;;;;;;;9.73;3.92;;;1.30;99.90;;;;;;6727765;88;20277;-78
2021/03/01 05:14:07;;;;;;;8.77;3.97;;;1.20;99.90;;;;;;6728736;88;20234;-77
2021/03/01 05:24:08;;;;;;;8.30;3.50;;;1.40;99.90;;;;;;6729731;88;20779;-78
2021/03/01 05:34:08;;;;;;;8.40;3.47;;;1.30;99.90;;;;;;6728391;88;20186;-78
2021/03/01 05:44:09;;;;;;;8.80;3.47;;;1.20;99.90;;;;;;6725611;88;20208;-78
2021/03/01 05:54:13;;;;;;;9.38;3.92;;;1.10;99.90;;;;;;6707299;88;20503;-77
2021/03/01 06:04:14;;;;;;;8.60;3.67;;;1.10;99.90;;;;;;6729484;88;20757;-78
2021/03/01 06:14:15;;;;;;;10.48;3.97;;;1.00;99.90;;;;;;6753907;88;20213;-77
2021/03/01 06:24:15;;;;;;;10.35;3.95;;;0.90;99.90;;;;;;6749603;88;20330;-78
2021/03/01 06:34:19;;;;;;;10.18;3.92;;;0.70;99.90;;;;;;6752430;88;20189;-78
2021/03/01 06:44:19;;;;;;;13.88;5.30;;;0.80;99.90;;;;;;6750346;88;20209;-77
2021/03/01 06:54:24;;;;;;;12.15;4.70;;;1.00;99.90;;;;;;6756181;88;20700;-78
2021/03/01 07:04:26;;;;;;;12.10;4.95;;;1.10;99.90;;;;;;6748611;88;20253;-78
2021/03/01 07:34:36;;;;;;;12.10;5.40;;;1.70;99.90;;;;;;6765435;88;20613;-81
2021/03/01 07:44:38;;;;;;;16.05;5.97;;;2.10;99.90;;;;;;6758670;88;22969;-81
2021/03/01 07:55:00;;;;;;;17.65;5.78;;;2.60;99.90;;;;;;6755787;88;20210;-80
2021/03/01 08:05:23;;;;;;;15.30;5.90;;;3.60;99.90;;;;;;6756922;88;20161;-79
2021/03/01 08:15:29;;;;;;;12.68;5.30;;;5.40;99.90;;;;;;6752531;88;20777;-79
2021/03/01 08:25:46;;;;;;;15.70;5.53;;;7.70;99.90;;;;;;6739750;88;20251;-80
2021/03/01 08:35:50;;;;;;;12.45;5.47;;;8.70;99.90;;;;;;6739838;88;20190;-79
2021/03/01 08:45:51;;;;;;;13.40;5.95;;;9.30;99.90;;;;;;6742529;88;20189;-79
2021/03/01 08:55:54;;;;;;;12.98;5.87;;;9.40;99.90;;;;;;6747169;88;20214;-80
2021/03/01 09:06:21;;;;;;;11.85;5.37;;;9.40;99.90;;;;;;6747663;88;20870;-80
2021/03/01 09:16:24;;;;;;;14.50;6.07;;;10.30;99.90;;;;;;6743766;88;20216;-81
2021/03/01 09:26:26;;;;;;;15.05;6.00;;;10.60;99.90;;;;;;6743671;88;20229;-78
2021/03/01 09:36:28;;;;;;;15.73;5.78;;;11.00;99.90;;;;;;6743830;88;20304;-81
2021/03/01 09:46:29;;;;;;;12.65;5.70;;;12.40;99.90;;;;;;6747203;88;20193;-81
2021/03/01 09:56:45;;;;;;;9.77;5.53;;;12.50;99.00;;;;;;6746496;88;20200;-79
2021/03/01 10:06:45;;;;;;;11.40;5.17;;;13.00;97.70;;;;;;6746382;88;20209;-79
2021/03/01 10:16:46;;;;;;;13.02;7.30;;;13.00;95.40;;;;;;6744762;88;20310;-79
2021/03/01 10:26:52;;;;;;;12.18;5.82;;;13.30;94.10;;;;;;6739952;88;20194;-78
2021/03/01 10:36:55;;;;;;;11.40;5.80;;;13.80;94.00;;;;;;6735495;88;20213;-78
2021/03/01 10:46:56;;;;;;;11.05;5.20;;;15.60;87.50;;;;;;6737695;88;20177;-79
2021/03/01 10:56:59;;;;;;;9.02;4.90;;;15.20;89.60;;;;;;6738390;88;20257;-79
2021/03/01 11:07:00;;;;;;;11.60;5.25;;;16.90;81.60;;;;;;6740673;88;20184;-79
2021/03/01 11:17:02;;;;;;;12.70;5.12;;;16.30;76.60;;;;;;6690004;89;20192;-79
2021/03/01 11:27:03;;;;;;;11.40;5.20;;;16.80;76.40;;;;;;6746575;88;20214;-80
2021/03/01 11:37:03;;;;;;;8.77;4.10;;;17.40;72.00;;;;;;6753277;88;20189;-77
2021/03/01 11:47:04;;;;;;;7.57;3.70;;;17.20;68.00;;;;;;6740733;88;20242;-80
2021/03/01 11:57:04;;;;;;;6.68;3.10;;;17.80;67.00;;;;;;6750984;88;20239;-79
2021/03/01 12:07:05;;;;;;;4.00;2.45;;;16.70;60.30;;;;;;6755443;88;20328;-80
2021/03/01 12:17:05;;;;;;;7.70;3.12;;;18.60;60.70;;;;;;6752534;88;20747;-80
2021/03/01 12:27:06;;;;;;;10.18;3.12;;;19.70;56.50;;;;;;6745423;88;20228;-80
2021/03/01 12:37:08;;;;;;;8.65;2.60;;;19.50;52.10;;;;;;6732583;88;20298;-80
2021/03/01 12:47:09;;;;;;;6.55;2.95;;;19.20;51.60;;;;;;6733851;88;20260;-81
2021/03/01 12:57:10;;;;;;;6.93;2.92;;;21.20;49.90;;;;;;6729353;88;20201;-80
2021/03/01 13:07:11;;;;;;;6.35;2.33;;;23.30;45.30;;;;;;6727522;88;20198;-79
2021/03/01 13:17:12;;;;;;;4.50;2.40;;;24.30;41.80;;;;;;6738365;88;20264;-80
2021/03/01 13:27:16;;;;;;;5.85;2.33;;;21.80;42.90;;;;;;6743368;88;20329;-81
2021/03/01 13:37:17;;;;;;;5.00;2.03;;;22.70;42.50;;;;;;6736860;88;20715;-80
2021/03/01 13:47:17;;;;;;;7.20;2.20;;;22.90;41.70;;;;;;6735595;88;20209;-81
2021/03/01 13:57:18;;;;;;;6.10;2.23;;;24.60;39.70;;;;;;6745532;88;20196;-81
2021/03/01 14:07:19;;;;;;;3.40;1.73;;;21.40;42.80;;;;;;6722923;88;20238;-80
2021/03/01 14:17:20;;;;;;;6.37;1.98;;;23.70;42.60;;;;;;6751567;88;20573;-81
2021/03/01 14:27:21;;;;;;;10.93;2.50;;;24.70;41.40;;;;;;6751419;88;20203;-81
2021/03/01 14:37:24;;;;;;;3.62;2.10;;;23.20;40.40;;;;;;6773241;88;20207;-81
2021/03/01 14:47:25;;;;;;;5.12;1.58;;;21.00;43.40;;;;;;6782323;88;20191;-80
2021/03/01 14:57:26;;;;;;;2.30;1.30;;;20.30;45.00;;;;;;6777051;87;20291;-81
2021/03/01 15:07:27;;;;;;;2.03;1.10;;;19.70;45.10;;;;;;6761339;88;20199;-81
2021/03/01 15:17:28;;;;;;;2.20;1.27;;;18.40;46.40;;;;;;6715225;88;20193;-81
2021/03/01 15:27:28;;;;;;;6.68;1.40;;;18.70;47.00;;;;;;6677105;89;20172;-82
2021/03/01 15:37:29;;;;;;;5.28;1.52;;;19.00;46.50;;;;;;6698049;89;20180;-83
2021/03/01 15:47:29;;;;;;;6.33;1.80;;;19.10;47.00;;;;;;6711747;88;20181;-85
2021/03/01 15:57:30;;;;;;;4.97;1.30;;;18.40;47.20;;;;;;6727988;88;20264;-81
2021/03/01 16:07:30;;;;;;;5.20;1.60;;;18.00;48.70;;;;;;6738892;88;20193;-79
2021/03/01 16:17:31;;;;;;;3.17;1.35;;;17.90;48.90;;;;;;6740459;88;20216;-79
2021/03/01 16:27:32;;;;;;;5.43;1.70;;;17.30;50.10;;;;;;6742872;88;20162;-79
2021/03/01 16:37:33;;;;;;;4.03;1.65;;;16.90;51.40;;;;;;6731507;88;20600;-79
2021/03/01 16:47:36;;;;;;;4.70;1.30;;;16.50;51.70;;;;;;6732994;88;20196;-79
2021/03/01 16:57:41;;;;;;;5.43;1.52;;;16.10;52.50;;;;;;6733591;88;20198;-80
2021/03/01 17:07:41;;;;;;;5.75;1.85;;;15.40;54.60;;;;;;6730990;88;20196;-79
2021/03/01 17:17:42;;;;;;;4.53;1.73;;;15.10;55.30;;;;;;6735381;88;20210;-79
2021/03/01 17:27:44;;;;;;;4.95;3.33;;;14.80;56.30;;;;;;6736688;88;20706;-80
2021/03/01 17:37:47;;;;;;;7.62;3.90;;;14.20;57.40;;;;;;6734516;88;20202;-82
2021/03/01 17:47:56;;;;;;;7.03;3.75;;;13.70;59.20;;;;;;6734772;88;20202;-80
2021/03/01 17:58:12;;;;;;;4.28;2.30;;;13.20;60.70;;;;;;6729518;88;20182;-81
2021/03/01 18:08:19;;;;;;;4.50;2.20;;;13.10;61.80;;;;;;6737673;88;20162;-82
2021/03/01 18:18:21;;;;;;;4.97;2.08;;;12.70;63.40;;;;;;6742613;88;20676;-84
2021/03/01 18:28:24;;;;;;;4.20;2.30;;;12.50;64.60;;;;;;6741514;88;20209;-84
2021/03/01 18:38:33;;;;;;;6.03;3.00;;;11.90;66.70;;;;;;6735278;88;20590;-81
2021/03/01 18:48:40;;;;;;;6.05;3.08;;;11.40;68.40;;;;;;6738600;88;20191;-81
2021/03/01 19:40:54;;;;;;;10.00;5.12;;;9.90;93.20;;;;;;6753196;88;20189;-82
2021/03/01 19:50:54;;;;;;;9.68;5.00;;;9.60;94.80;;;;;;6715339;88;20234;-84
2021/03/01 20:00:55;;;;;;;10.15;5.07;;;9.50;97.40;;;;;;6714854;88;20190;-79
2021/03/01 20:10:55;;;;;;;10.07;4.80;;;9.10;99.60;;;;;;6711611;88;20266;-81
2021/03/01 20:20:56;;;;;;;9.25;4.00;;;8.90;99.90;;;;;;6743105;88;20299;-81
2021/03/01 20:30:57;;;;;;;8.85;4.53;;;8.80;99.90;;;;;;6751571;88;20174;-80
2021/03/01 20:40:57;;;;;;;9.20;3.83;;;8.80;99.90;;;;;;6751303;88;20141;-80
2021/03/01 20:51:00;;;;;;;10.57;5.30;;;8.70;99.90;;;;;;6746597;88;20210;-81
2021/03/01 21:01:01;;;;;;;7.32;4.28;;;8.00;99.90;;;;;;6730711;88;20665;-79
2021/03/01 21:11:04;;;;;;;9.23;4.45;;;7.80;99.90;;;;;;6731483;88;20228;-80
2021/03/01 21:21:07;;;;;;;11.12;5.55;;;7.30;99.90;;;;;;6735839;88;20225;-78
2021/03/01 21:31:08;;;;;;;11.50;5.50;;;7.00;99.90;;;;;;6729376;88;20187;-79
2021/03/01 21:41:09;;;;;;;10.07;5.18;;;6.90;99.90;;;;;;6736151;88;20186;-79
2021/03/01 21:51:10;;;;;;;9.65;5.25;;;6.60;99.90;;;;;;6760769;88;20762;-78
2021/03/01 22:01:11;;;;;;;16.05;5.82;;;6.40;99.90;;;;;;6740874;88;20340;-80
2021/03/01 22:11:12;;;;;;;8.65;4.20;;;6.10;99.90;;;;;;6743399;88;20997;-80
2021/03/01 22:21:15;;;;;;;14.00;5.68;;;6.10;99.90;;;;;;6742007;88;20245;-79
2021/03/01 22:31:27;;;;;;;10.85;4.80;;;5.90;99.90;;;;;;6737048;88;20213;-79
2021/03/01 22:41:28;;;;;;;11.93;4.85;;;5.70;99.90;;;;;;6725020;88;20179;-80
2021/03/01 22:51:34;;;;;;;11.57;5.00;;;5.80;99.90;;;;;;6723794;88;20202;-79
2021/03/01 23:01:37;;;;;;;11.63;5.18;;;5.70;99.90;;;;;;6724714;88;20237;-78
2021/03/01 23:11:41;;;;;;;11.95;5.28;;;5.70;99.90;;;;;;6729604;88;20202;-79
2021/03/01 23:21:42;;;;;;;12.75;4.87;;;5.40;99.90;;;;;;6693242;89;20226;-79
2021/03/01 23:31:42;;;;;;;10.02;4.70;;;5.30;99.90;;;;;;6698435;88;20206;-79
2021/03/01 23:41:44;;;;;;;11.05;4.50;;;5.10;99.90;;;;;;6730023;88;20245;-79
2021/03/01 23:51:46;;;;;;;10.00;4.50;;;5.10;99.90;;;;;;6729760;88;20512;-79
